Time;durP1;ratioP1;P1;durP2;ratioP2;P2;SDS_P1;SDS_P2;PMS_P1;PMS_P2;Temp;Humidity;BMP_temperature;BMP_pressure;BME280_temperature;BME280_humidity;BME280_pressure;Samples;Min_cycle;Max_cycle;Signal;HPM_P1;HPM_P2
2021/11/10 00:02:08;;;;;;;;;88.50;72.75;8.60;71.50;;;;;;5039504;28;8814;-62
2021/11/10 00:04:35;;;;;;;;;81.75;65.50;8.40;71.80;;;;;;5045351;28;8794;-62
2021/11/10 00:07:01;;;;;;;;;88.00;75.00;8.10;73.10;;;;;;5045517;28;8776;-63
2021/11/10 00:09:27;;;;;;;;;88.00;73.00;8.20;73.50;;;;;;5042890;28;8983;-61
2021/11/10 00:11:55;;;;;;;;;81.25;65.75;8.20;73.30;;;;;;5036337;28;8798;-65
2021/11/10 00:14:22;;;;;;;;;81.00;67.00;8.30;72.70;;;;;;5034552;28;8838;-63
2021/11/10 00:16:48;;;;;;;;;87.00;72.00;8.70;71.10;;;;;;5046201;28;9440;-61
2021/11/10 00:19:14;;;;;;;;;83.25;70.00;8.50;71.70;;;;;;5042762;28;8828;-63
2021/11/10 00:21:40;;;;;;;;;88.50;75.50;8.40;72.20;;;;;;5038580;28;8786;-64
2021/11/10 00:24:07;;;;;;;;;73.50;60.00;8.50;72.00;;;;;;5046442;28;8808;-63
2021/11/10 00:26:34;;;;;;;;;85.75;74.50;8.20;72.50;;;;;;5035007;28;8896;-62
2021/11/10 00:28:59;;;;;;;;;84.25;68.00;8.00;73.10;;;;;;5033832;28;8774;-62
2021/11/10 00:31:26;;;;;;;;;73.00;60.50;7.80;74.30;;;;;;5034948;28;8961;-64
2021/11/10 00:33:52;;;;;;;;;86.75;72.25;8.00;73.80;;;;;;5038437;28;8814;-60
2021/11/10 00:36:18;;;;;;;;;83.50;70.75;8.10;73.10;;;;;;5047261;28;8809;-63
2021/11/10 00:38:45;;;;;;;;;78.00;63.50;8.20;73.20;;;;;;5037879;28;8782;-62
2021/11/10 00:41:11;;;;;;;;;87.75;76.00;8.30;72.40;;;;;;5019980;28;8824;-64
2021/11/10 00:43:37;;;;;;;;;82.25;69.25;8.10;72.80;;;;;;5037741;28;8774;-63
2021/11/10 00:46:03;;;;;;;;;81.25;64.00;8.30;72.80;;;;;;5037411;28;8778;-63
2021/11/10 00:48:29;;;;;;;;;78.00;63.50;8.30;72.30;;;;;;5037622;28;9457;-64
2021/11/10 00:50:55;;;;;;;;;79.00;64.00;8.30;72.40;;;;;;5037418;28;8890;-63
2021/11/10 00:53:21;;;;;;;;;80.75;67.00;8.10;74.60;;;;;;5047869;28;8804;-63
2021/11/10 00:55:47;;;;;;;;;90.00;80.50;8.20;73.70;;;;;;5037516;28;8797;-63
2021/11/10 00:58:13;;;;;;;;;89.50;77.00;8.10;73.00;;;;;;5037192;28;9573;-64
2021/11/10 01:00:40;;;;;;;;;84.50;71.25;7.90;74.00;;;;;;5037035;28;8781;-64
2021/11/10 01:03:07;;;;;;;;;85.50;75.50;7.80;74.50;;;;;;5037423;28;8785;-61
2021/11/10 01:05:34;;;;;;;;;89.00;75.75;8.20;73.50;;;;;;5037070;28;8862;-64
2021/11/10 01:08:01;;;;;;;;;90.50;79.00;8.40;71.90;;;;;;5037036;28;8857;-66
2021/11/10 01:10:27;;;;;;;;;90.75;84.00;8.40;71.90;;;;;;5037199;28;8802;-64
2021/11/10 01:12:53;;;;;;;;;93.75;86.50;8.30;72.00;;;;;;5036906;28;8840;-63
2021/11/10 01:15:19;;;;;;;;;88.50;77.50;8.20;72.20;;;;;;5037112;28;8758;-62
2021/11/10 01:17:45;;;;;;;;;93.75;86.00;8.00;72.60;;;;;;5037135;28;8782;-62
2021/11/10 01:20:14;;;;;;;;;80.75;66.00;8.20;72.10;;;;;;5050897;28;8828;-62
2021/11/10 01:22:40;;;;;;;;;92.25;82.75;7.90;72.20;;;;;;5056718;28;8918;-63
2021/11/10 01:25:07;;;;;;;;;84.75;70.50;7.70;72.80;;;;;;5056871;28;8776;-64
2021/11/10 01:27:34;;;;;;;;;86.50;71.75;7.70;73.00;;;;;;5056903;28;8756;-64
2021/11/10 01:30:00;;;;;;;;;83.50;69.25;7.90;71.70;;;;;;5056742;28;8879;-62
2021/11/10 01:32:26;;;;;;;;;90.25;77.50;7.50;73.00;;;;;;5056274;28;8831;-64
2021/11/10 01:34:52;;;;;;;;;87.50;74.00;7.70;72.40;;;;;;5056727;28;8776;-64
2021/11/10 01:37:18;;;;;;;;;85.75;73.75;7.70;72.20;;;;;;5056756;28;8768;-63
2021/11/10 01:39:44;;;;;;;;;85.00;70.75;7.80;71.80;;;;;;5056613;28;8764;-63
2021/11/10 01:42:10;;;;;;;;;82.50;66.00;7.60;71.80;;;;;;5055911;28;8788;-64
2021/11/10 01:44:38;;;;;;;;;82.50;69.75;7.70;71.60;;;;;;5056482;28;8772;-63
2021/11/10 01:47:07;;;;;;;;;81.75;67.00;7.60;71.70;;;;;;5056522;28;8772;-61
2021/11/10 01:49:34;;;;;;;;;84.00;69.00;7.50;72.40;;;;;;5056214;28;8771;-64
2021/11/10 01:52:01;;;;;;;;;80.75;67.00;8.00;71.00;;;;;;5056509;28;9560;-64
2021/11/10 01:54:29;;;;;;;;;80.00;65.00;8.30;69.60;;;;;;5056362;28;8808;-63
2021/11/10 01:56:56;;;;;;;;;84.00;69.50;8.40;69.00;;;;;;5056096;28;8784;-61
2021/11/10 01:59:30;;;;;;;;;89.75;77.25;8.10;69.50;;;;;;5056197;28;8799;-60
2021/11/10 02:01:56;;;;;;;;;88.25;77.00;8.40;69.10;;;;;;5056074;28;8811;-65
2021/11/10 02:04:27;;;;;;;;;90.25;78.25;8.50;68.20;;;;;;5055921;28;8786;-63
2021/11/10 02:06:54;;;;;;;;;86.75;75.75;8.40;68.40;;;;;;5056198;28;8924;-66
2021/11/10 02:09:24;;;;;;;;;79.50;65.25;8.50;68.30;;;;;;5055814;28;9553;-65
2021/11/10 02:11:52;;;;;;;;;86.00;75.00;8.80;67.70;;;;;;5055752;28;8854;-66
2021/11/10 02:14:23;;;;;;;;;90.50;78.50;8.40;68.70;;;;;;5053909;28;8804;-62
2021/11/10 02:16:49;;;;;;;;;83.75;69.25;8.40;69.10;;;;;;5055788;28;8748;-62
2021/11/10 02:19:16;;;;;;;;;85.00;71.00;7.90;70.40;;;;;;5055921;28;9450;-62
2021/11/10 02:21:46;;;;;;;;;87.50;75.00;7.80;71.20;;;;;;5055605;28;8776;-63
2021/11/10 02:24:13;;;;;;;;;88.50;74.75;8.00;70.30;;;;;;5055492;28;8784;-62
2021/11/10 02:26:41;;;;;;;;;77.75;64.00;7.90;71.10;;;;;;5055777;28;8756;-63
2021/11/10 02:29:07;;;;;;;;;77.75;62.50;7.90;71.00;;;;;;5055424;28;8772;-62
2021/11/10 02:31:34;;;;;;;;;82.00;67.00;8.20;69.90;;;;;;5055091;28;8909;-61
2021/11/10 02:34:04;;;;;;;;;85.00;70.75;8.30;69.70;;;;;;5055528;28;8989;-62
2021/11/10 02:36:33;;;;;;;;;81.50;65.50;8.20;69.60;;;;;;5055350;28;8779;-61
2021/11/10 02:39:20;;;;;;;;;81.50;66.75;7.70;71.10;;;;;;5055260;28;8756;-63
2021/11/10 02:41:47;;;;;;;;;82.75;66.75;7.40;72.40;;;;;;5055444;28;8883;-62
2021/11/10 02:44:18;;;;;;;;;78.25;64.50;7.30;73.30;;;;;;5037612;28;8853;-65
2021/11/10 02:46:46;;;;;;;;;78.00;64.25;7.30;73.50;;;;;;5055378;28;8757;-62
2021/11/10 02:49:12;;;;;;;;;78.50;64.25;7.30;73.20;;;;;;5055278;28;8850;-61
2021/11/10 02:51:57;;;;;;;;;76.25;63.75;7.50;73.10;;;;;;5055044;28;8867;-64
2021/11/10 02:54:24;;;;;;;;;74.75;62.50;7.70;71.90;;;;;;5054117;28;8828;-59
2021/11/10 02:56:52;;;;;;;;;75.50;62.75;8.00;70.80;;;;;;5054918;28;9536;-63
2021/11/10 02:59:18;;;;;;;;;74.75;61.00;8.40;69.40;;;;;;5054824;28;8772;-63
2021/11/10 03:01:44;;;;;;;;;75.00;61.50;8.60;68.50;;;;;;5054911;28;8819;-63
2021/11/10 03:04:46;;;;;;;;;75.25;62.75;8.10;70.10;;;;;;5054785;28;8875;-62
2021/11/10 03:07:14;;;;;;;;;75.50;60.75;7.60;72.40;;;;;;4973863;28;8811;-58
2021/11/10 03:09:41;;;;;;;;;70.75;59.50;7.70;72.30;;;;;;4973887;28;8784;-63
2021/11/10 03:12:08;;;;;;;;;73.25;60.25;7.80;71.90;;;;;;4973834;28;8793;-64
2021/11/10 03:14:36;;;;;;;;;74.00;62.00;8.00;71.80;;;;;;4973921;28;8863;-61
2021/11/10 03:17:08;;;;;;;;;77.25;63.50;8.00;71.90;;;;;;4973885;28;8761;-63
2021/11/10 03:19:34;;;;;;;;;73.75;61.25;8.50;70.20;;;;;;4973835;28;8781;-64
2021/11/10 03:22:00;;;;;;;;;77.25;64.00;8.80;68.60;;;;;;4973824;28;8803;-64
2021/11/10 03:24:26;;;;;;;;;67.00;57.50;8.80;68.50;;;;;;4957717;28;8814;-62
2021/11/10 03:26:52;;;;;;;;;77.25;63.25;8.80;68.20;;;;;;4973630;28;8793;-61
2021/11/10 03:29:18;;;;;;;;;75.25;62.00;8.30;69.60;;;;;;4973571;28;8890;-63
2021/11/10 03:31:44;;;;;;;;;79.00;64.25;8.40;69.50;;;;;;4973338;28;8855;-64
2021/11/10 03:34:12;;;;;;;;;77.50;64.00;8.60;68.30;;;;;;4973552;28;8852;-61
2021/11/10 03:36:39;;;;;;;;;77.25;63.50;8.60;68.50;;;;;;4973580;28;8783;-63
2021/11/10 03:39:07;;;;;;;;;80.25;66.25;8.70;68.10;;;;;;4973552;28;8815;-61
2021/11/10 03:41:33;;;;;;;;;79.25;64.25;8.90;67.30;;;;;;4976040;28;8777;-63
2021/11/10 03:43:59;;;;;;;;;83.00;68.25;8.70;67.40;;;;;;5054512;28;8814;-65
2021/11/10 03:46:26;;;;;;;;;84.25;67.00;8.40;68.10;;;;;;5054312;28;8792;-65
2021/11/10 03:48:52;;;;;;;;;84.00;69.50;8.10;68.80;;;;;;5054170;28;8776;-63
2021/11/10 03:51:18;;;;;;;;;85.00;73.50;7.50;71.00;;;;;;5054468;28;9484;-65
2021/11/10 03:53:45;;;;;;;;;85.25;70.75;7.50;71.20;;;;;;5054277;28;9450;-62
2021/11/10 03:56:11;;;;;;;;;82.00;67.75;7.60;70.70;;;;;;5054398;28;8748;-64
2021/11/10 03:58:37;;;;;;;;;82.25;66.00;7.80;70.00;;;;;;5053862;28;8779;-62
2021/11/10 04:01:05;;;;;;;;;82.00;67.75;8.10;69.00;;;;;;5036447;28;8808;-63
2021/11/10 04:03:32;;;;;;;;;87.00;73.50;8.20;69.30;;;;;;5054347;28;8889;-64
2021/11/10 04:05:59;;;;;;;;;86.75;75.00;8.20;68.50;;;;;;5056506;28;8764;-63
2021/11/10 04:08:24;;;;;;;;;84.75;70.75;8.50;67.30;;;;;;5058144;28;8772;-63
2021/11/10 04:10:50;;;;;;;;;87.50;75.25;8.50;66.70;;;;;;5058000;28;8798;-62
2021/11/10 04:13:16;;;;;;;;;90.25;79.00;8.10;67.90;;;;;;5057915;28;8846;-64
2021/11/10 04:15:43;;;;;;;;;87.75;74.25;7.70;69.10;;;;;;5057950;28;8902;-63
2021/11/10 04:18:09;;;;;;;;;88.50;76.50;7.50;70.70;;;;;;5057879;28;8867;-63
2021/11/10 04:20:35;;;;;;;;;89.00;76.50;7.50;71.00;;;;;;5058131;28;8859;-63
2021/11/10 04:23:01;;;;;;;;;90.50;78.00;7.40;71.30;;;;;;5058205;28;8886;-61
2021/11/10 04:25:27;;;;;;;;;81.50;67.00;7.30;71.40;;;;;;5057751;28;9434;-62
2021/11/10 04:27:53;;;;;;;;;87.00;73.00;7.20;71.40;;;;;;5057992;28;8764;-63
2021/11/10 04:30:19;;;;;;;;;82.25;67.00;7.00;72.60;;;;;;5057639;28;9495;-63
2021/11/10 04:32:46;;;;;;;;;77.75;64.00;6.90;73.40;;;;;;5057347;28;9533;-61
2021/11/10 04:35:14;;;;;;;;;78.00;63.50;6.60;74.80;;;;;;5057604;28;8756;-63
2021/11/10 04:37:40;;;;;;;;;80.75;66.00;6.50;75.90;;;;;;5057588;28;8757;-62
2021/11/10 04:40:08;;;;;;;;;79.25;65.25;6.60;75.90;;;;;;5057498;28;8881;-65
2021/11/10 04:42:35;;;;;;;;;84.50;69.50;6.50;75.70;;;;;;5057773;28;8760;-64
2021/11/10 04:45:04;;;;;;;;;80.50;66.75;6.40;76.30;;;;;;5057470;28;8810;-63
2021/11/10 04:47:31;;;;;;;;;76.00;63.00;6.50;76.30;;;;;;5057391;28;8780;-63
2021/11/10 04:49:57;;;;;;;;;78.75;65.00;6.70;75.60;;;;;;5057615;28;8756;-62
2021/11/10 04:52:23;;;;;;;;;80.25;66.75;6.40;76.40;;;;;;5057316;28;8768;-63
2021/11/10 04:54:52;;;;;;;;;79.00;64.00;6.30;77.10;;;;;;5057275;28;8772;-64
2021/11/10 04:57:18;;;;;;;;;78.75;64.25;6.20;77.10;;;;;;5057242;28;8795;-63
2021/11/10 04:59:44;;;;;;;;;84.50;71.50;6.00;78.40;;;;;;5057109;28;8768;-64
2021/11/10 05:04:38;;;;;;;;;86.50;70.50;5.80;79.00;;;;;;5057130;28;9363;-61
2021/11/10 05:07:04;;;;;;;;;81.00;66.50;6.00;78.20;;;;;;5056953;28;8776;-61
2021/11/10 05:09:31;;;;;;;;;88.75;72.50;6.00;77.70;;;;;;5057011;28;8740;-62
2021/11/10 05:11:57;;;;;;;;;86.75;70.00;6.50;76.30;;;;;;5057055;28;8855;-61
2021/11/10 05:14:24;;;;;;;;;78.00;64.50;6.20;75.80;;;;;;5056866;28;8799;-64
2021/11/10 05:16:51;;;;;;;;;83.50;69.00;6.10;76.00;;;;;;5056065;28;8776;-61
2021/11/10 05:19:17;;;;;;;;;82.25;67.00;5.80;76.90;;;;;;5056870;28;8768;-63
2021/11/10 05:21:43;;;;;;;;;83.50;66.75;5.80;77.20;;;;;;5056772;28;8787;-61
2021/11/10 05:24:09;;;;;;;;;75.50;61.75;5.70;76.90;;;;;;5056950;28;8764;-64
2021/11/10 05:26:38;;;;;;;;;77.25;63.75;5.70;77.20;;;;;;5056924;28;8776;-61
2021/11/10 05:29:04;;;;;;;;;81.50;66.75;6.00;75.50;;;;;;5056939;28;8776;-62
2021/11/10 05:31:30;;;;;;;;;81.25;67.00;5.70;76.80;;;;;;5056400;28;8812;-63
2021/11/10 05:33:56;;;;;;;;;82.00;68.00;6.00;76.40;;;;;;5056395;28;8804;-62
2021/11/10 05:36:22;;;;;;;;;82.75;67.75;6.20;75.00;;;;;;5056817;28;8768;-64
2021/11/10 05:38:48;;;;;;;;;82.50;67.50;6.20;74.80;;;;;;5054375;28;9468;-62
2021/11/10 05:41:14;;;;;;;;;82.75;68.00;6.60;74.30;;;;;;5038832;28;8783;-62
2021/11/10 05:43:40;;;;;;;;;88.75;74.50;6.50;73.40;;;;;;5056373;28;8772;-64
2021/11/10 05:46:05;;;;;;;;;89.50;73.25;5.90;75.60;;;;;;5056230;28;8911;-61
2021/11/10 05:48:31;;;;;;;;;87.00;72.00;5.50;77.70;;;;;;5056185;28;8898;-64
2021/11/10 05:50:58;;;;;;;;;89.75;75.50;5.60;78.50;;;;;;5049205;28;8778;-62
2021/11/10 05:53:24;;;;;;;;;82.50;67.25;6.30;76.50;;;;;;5036110;28;8814;-62
2021/11/10 05:55:55;;;;;;;;;75.00;61.75;6.50;74.70;;;;;;5036453;28;8898;-63
2021/11/10 05:58:28;;;;;;;;;78.25;63.50;6.30;75.50;;;;;;5036172;28;8767;-62
2021/11/10 06:00:56;;;;;;;;;84.00;67.50;6.10;76.60;;;;;;5054375;28;8795;-61
2021/11/10 06:03:22;;;;;;;;;74.25;62.00;5.90;77.90;;;;;;5056129;28;8772;-62
2021/11/10 06:05:52;;;;;;;;;79.75;65.00;5.80;78.70;;;;;;5043646;28;8782;-63
2021/11/10 06:08:18;;;;;;;;;74.25;62.00;5.80;78.70;;;;;;5036166;28;8864;-60
2021/11/10 06:10:44;;;;;;;;;78.75;64.50;5.70;79.40;;;;;;5035851;28;8762;-64
2021/11/10 06:13:10;;;;;;;;;78.75;64.25;5.80;79.40;;;;;;5035757;28;8837;-64
2021/11/10 06:15:36;;;;;;;;;81.25;65.00;5.90;78.90;;;;;;5035736;28;8770;-63
2021/11/10 06:18:03;;;;;;;;;83.00;66.75;6.10;78.70;;;;;;5035722;28;8786;-62
2021/11/10 06:20:29;;;;;;;;;83.75;68.50;6.50;77.50;;;;;;5035899;28;8792;-62
2021/11/10 06:22:55;;;;;;;;;80.75;65.25;6.50;77.30;;;;;;5035920;28;8766;-65
2021/11/10 06:25:21;;;;;;;;;82.75;66.75;6.40;78.10;;;;;;5035554;28;8766;-63
2021/11/10 06:27:47;;;;;;;;;82.00;67.75;6.30;78.30;;;;;;5035549;28;8762;-62
2021/11/10 06:30:13;;;;;;;;;85.75;72.50;6.40;78.30;;;;;;5018044;28;8774;-63
2021/11/10 06:32:40;;;;;;;;;81.25;67.00;6.70;77.40;;;;;;5035114;28;8876;-64
2021/11/10 06:35:07;;;;;;;;;78.50;64.25;6.70;77.40;;;;;;5035611;28;9566;-63
2021/11/10 06:37:32;;;;;;;;;72.50;60.75;6.50;78.00;;;;;;5035628;28;8860;-64
2021/11/10 06:39:58;;;;;;;;;77.75;63.00;6.40;79.10;;;;;;5035207;28;8771;-63
2021/11/10 06:42:25;;;;;;;;;78.75;64.25;6.20;79.10;;;;;;5035139;28;8770;-65
2021/11/10 06:44:51;;;;;;;;;77.50;62.50;6.20;79.40;;;;;;5035459;28;8868;-64
2021/11/10 06:47:17;;;;;;;;;76.50;63.75;6.30;79.40;;;;;;5035006;28;8771;-64
2021/11/10 06:49:43;;;;;;;;;71.75;60.25;6.20;79.40;;;;;;5034953;28;8758;-65
2021/11/10 06:52:11;;;;;;;;;69.25;56.75;6.20;79.50;;;;;;5035037;28;8759;-64
2021/11/10 06:54:37;;;;;;;;;70.50;59.50;6.20;79.60;;;;;;5017541;28;8814;-64
2021/11/10 06:57:03;;;;;;;;;72.75;60.75;6.30;79.50;;;;;;5035215;28;8786;-64
2021/11/10 06:59:29;;;;;;;;;70.25;57.50;6.50;78.90;;;;;;5034998;28;8789;-62
2021/11/10 07:01:54;;;;;;;;;74.25;60.75;6.60;78.70;;;;;;5035244;28;8786;-64
2021/11/10 07:04:20;;;;;;;;;68.00;55.50;6.40;79.10;;;;;;5034897;28;8840;-63
2021/11/10 07:06:46;;;;;;;;;76.50;62.50;6.30;79.80;;;;;;5035059;28;8782;-64
2021/11/10 07:09:12;;;;;;;;;77.50;64.00;6.40;80.20;;;;;;5017251;28;8786;-65
2021/11/10 07:11:38;;;;;;;;;73.50;62.00;6.40;80.10;;;;;;5035011;28;8830;-64
2021/11/10 07:14:05;;;;;;;;;82.00;67.75;6.60;79.80;;;;;;5034709;28;8829;-63
2021/11/10 07:16:32;;;;;;;;;83.75;67.25;6.40;80.00;;;;;;5034639;28;8763;-63
2021/11/10 07:18:58;;;;;;;;;80.00;65.50;6.60;79.40;;;;;;5034902;28;8763;-64
2021/11/10 07:21:24;;;;;;;;;79.00;64.75;6.90;78.70;;;;;;5034797;28;8750;-63
2021/11/10 07:23:50;;;;;;;;;84.25;70.50;6.90;78.70;;;;;;5034749;28;8790;-63
2021/11/10 07:26:16;;;;;;;;;81.00;65.75;7.00;79.10;;;;;;5034572;28;9470;-63
2021/11/10 07:28:42;;;;;;;;;80.00;66.00;7.20;78.40;;;;;;5034765;28;8778;-63
2021/11/10 07:31:08;;;;;;;;;82.50;66.50;7.20;78.30;;;;;;5034211;28;8918;-63
2021/11/10 07:33:33;;;;;;;;;87.25;74.50;7.30;78.60;;;;;;5034337;28;8818;-61
2021/11/10 07:35:59;;;;;;;;;89.50;77.25;7.70;77.20;;;;;;5034693;28;8770;-64
2021/11/10 07:38:25;;;;;;;;;85.25;74.00;7.80;76.40;;;;;;5034574;28;8801;-64
2021/11/10 07:40:53;;;;;;;;;82.00;66.00;7.60;77.00;;;;;;5034002;28;8789;-59
2021/11/10 07:43:22;;;;;;;;;69.00;58.00;7.80;76.30;;;;;;5034393;28;8816;-62
2021/11/10 07:45:53;;;;;;;;;74.25;62.00;7.90;76.00;;;;;;5034325;28;8792;-68
2021/11/10 07:48:19;;;;;;;;;83.75;70.50;8.30;75.50;;;;;;5034461;28;9444;-62
2021/11/10 07:50:45;;;;;;;;;71.75;59.00;8.30;75.00;;;;;;5034149;28;8802;-63
2021/11/10 07:53:12;;;;;;;;;91.50;82.00;8.20;75.00;;;;;;5033927;28;8813;-61
2021/11/10 07:55:38;;;;;;;;;90.25;80.25;8.30;75.90;;;;;;5034362;28;9621;-65
2021/11/10 07:58:03;;;;;;;;;76.50;63.00;8.10;77.00;;;;;;5034233;28;8773;-64
2021/11/10 08:00:29;;;;;;;;;79.25;64.00;8.00;77.70;;;;;;5033949;28;8766;-63
2021/11/10 08:02:56;;;;;;;;;75.25;61.25;8.00;78.70;;;;;;5034131;28;8794;-63
2021/11/10 08:05:21;;;;;;;;;63.75;53.75;8.00;78.60;;;;;;5034344;28;9506;-65
2021/11/10 08:07:47;;;;;;;;;68.25;57.25;8.00;78.70;;;;;;5033973;28;8770;-66
2021/11/10 08:10:15;;;;;;;;;66.25;56.00;8.00;78.50;;;;;;5016527;28;8762;-64
2021/11/10 08:12:41;;;;;;;;;65.75;55.00;8.00;79.50;;;;;;5033802;28;8810;-66
2021/11/10 08:15:10;;;;;;;;;67.00;56.00;8.20;78.20;;;;;;5034002;28;8789;-64
2021/11/10 08:17:37;;;;;;;;;65.25;55.50;8.50;77.60;;;;;;5033817;28;8793;-64
2021/11/10 08:20:09;;;;;;;;;62.50;53.00;8.40;78.10;;;;;;5033911;28;8860;-63
2021/11/10 08:22:36;;;;;;;;;63.00;53.25;8.60;77.90;;;;;;5033853;28;8758;-61
2021/11/10 08:25:03;;;;;;;;;64.50;54.50;8.70;77.50;;;;;;5033769;28;8767;-64
2021/11/10 08:27:29;;;;;;;;;65.75;54.50;8.90;76.80;;;;;;5033614;28;8817;-63
2021/11/10 08:29:55;;;;;;;;;61.00;52.00;9.30;76.60;;;;;;5033733;28;8767;-62
2021/11/10 08:32:20;;;;;;;;;58.75;50.75;9.20;75.70;;;;;;5033477;28;8861;-63
2021/11/10 08:34:46;;;;;;;;;58.00;49.25;9.30;75.50;;;;;;5034051;28;8776;-73
2021/11/10 08:37:12;;;;;;;;;61.25;50.50;9.30;76.50;;;;;;5033541;28;8771;-64
2021/11/10 08:39:38;;;;;;;;;60.25;51.50;9.40;75.30;;;;;;5033607;28;9507;-63
2021/11/10 08:42:08;;;;;;;;;61.25;52.00;10.00;73.50;;;;;;5033156;28;8766;-61
2021/11/10 08:44:36;;;;;;;;;64.00;54.00;10.30;72.40;;;;;;5050368;28;8791;-62
2021/11/10 08:47:04;;;;;;;;;59.75;50.25;10.50;71.30;;;;;;5047169;28;8894;-62
2021/11/10 08:49:31;;;;;;;;;59.00;50.50;10.60;71.70;;;;;;5042598;28;9453;-61
2021/11/10 08:51:57;;;;;;;;;55.50;48.00;10.20;73.40;;;;;;5041044;28;8790;-64
2021/11/10 08:54:25;;;;;;;;;51.00;44.00;10.00;74.30;;;;;;5048540;28;8897;-64
2021/11/10 08:56:53;;;;;;;;;57.00;47.25;10.30;72.40;;;;;;5056672;28;8784;-65
2021/11/10 08:59:20;;;;;;;;;53.25;46.50;10.20;72.50;;;;;;5057129;28;8879;-64
2021/11/10 09:01:52;;;;;;;;;43.00;39.50;10.30;71.80;;;;;;5057448;28;9474;-63
2021/11/10 09:04:20;;;;;;;;;45.75;40.75;10.40;72.00;;;;;;5057153;28;8799;-64
2021/11/10 09:06:47;;;;;;;;;41.75;38.25;10.50;71.80;;;;;;5057372;28;8772;-64
2021/11/10 09:09:15;;;;;;;;;50.00;43.50;10.70;72.30;;;;;;5050059;28;8774;-63
2021/11/10 09:11:42;;;;;;;;;44.75;40.50;10.70;71.90;;;;;;5043668;28;8809;-64
2021/11/10 09:14:08;;;;;;;;;50.50;43.00;10.90;72.10;;;;;;5045347;28;8820;-62
2021/11/10 09:16:34;;;;;;;;;46.25;41.00;11.10;70.70;;;;;;5043223;28;8906;-65
2021/11/10 09:19:00;;;;;;;;;44.25;39.75;11.20;70.60;;;;;;5050445;28;8925;-62
2021/11/10 09:21:26;;;;;;;;;38.50;36.50;11.20;69.80;;;;;;5043547;28;8887;-66
2021/11/10 09:23:52;;;;;;;;;36.00;34.25;11.40;69.50;;;;;;5050154;28;8782;-63
2021/11/10 09:26:18;;;;;;;;;38.75;36.00;11.30;69.00;;;;;;5049177;28;8802;-63
2021/11/10 09:28:44;;;;;;;;;30.00;30.00;11.40;69.60;;;;;;5056025;28;8829;-66
2021/11/10 09:31:11;;;;;;;;;28.33;28.33;11.30;68.90;;;;;;5056220;28;8832;-63
2021/11/10 09:33:40;;;;;;;;;34.00;33.50;11.30;68.40;;;;;;5048315;28;8889;-62
2021/11/10 09:36:07;;;;;;;;;30.67;30.67;11.60;68.80;;;;;;5055511;28;8803;-62
2021/11/10 09:38:34;;;;;;;;;38.50;36.00;11.50;67.80;;;;;;5054576;28;8787;-64
2021/11/10 09:41:01;;;;;;;;;31.00;31.00;11.70;68.40;;;;;;5055233;28;8784;-62
2021/11/10 09:43:38;;;;;;;;;35.33;34.33;11.60;67.70;;;;;;5053605;28;9442;-64
2021/11/10 09:46:06;;;;;;;;;30.67;30.67;11.60;67.70;;;;;;5056200;28;8796;-66
2021/11/10 09:48:33;;;;;;;;;30.50;30.50;11.80;66.50;;;;;;5056535;28;8781;-65
2021/11/10 09:50:59;;;;;;;;;38.00;36.00;12.10;66.00;;;;;;5056213;28;8768;-64
2021/11/10 09:53:25;;;;;;;;;25.33;25.33;12.30;66.00;;;;;;5056099;28;8795;-71
2021/11/10 09:55:54;;;;;;;;;25.67;25.67;12.30;64.80;;;;;;5056180;28;8806;-63
2021/11/10 09:58:20;;;;;;;;;26.33;26.33;12.90;64.20;;;;;;5056365;28;9559;-61
2021/11/10 10:00:55;;;;;;;;;28.00;28.00;13.70;62.40;;;;;;5055860;28;8784;-66
2021/11/10 10:03:23;;;;;;;;;30.00;29.67;14.70;59.70;;;;;;5055973;28;9422;-62
2021/11/10 10:05:51;;;;;;;;;26.33;26.33;16.30;56.10;;;;;;5037870;28;8764;-67
2021/11/10 10:08:19;;;;;;;;;32.00;30.33;18.00;52.00;;;;;;5055280;28;8861;-67
2021/11/10 10:10:46;;;;;;;;;30.33;30.33;19.10;48.50;;;;;;5055380;28;8780;-68
2021/11/10 10:13:12;;;;;;;;;26.33;26.33;20.20;46.10;;;;;;5055219;28;8816;-68
2021/11/10 10:15:40;;;;;;;;;26.00;26.00;22.40;43.10;;;;;;5048145;28;8791;-68
2021/11/10 10:18:20;;;;;;;;;35.00;33.33;22.80;40.80;;;;;;5055170;28;8924;-65
2021/11/10 10:20:58;;;;;;;;;30.33;30.33;23.30;39.40;;;;;;5055676;28;8918;-67
2021/11/10 10:23:27;;;;;;;;;27.67;27.67;24.50;38.00;;;;;;5055883;28;8838;-67
2021/11/10 10:25:57;;;;;;;;;33.67;32.33;25.80;35.10;;;;;;5055404;28;8769;-65
2021/11/10 10:28:26;;;;;;;;;24.00;24.00;26.00;33.20;;;;;;5055501;28;8772;-64
2021/11/10 10:30:57;;;;;;;;;24.00;24.00;25.10;34.40;;;;;;5055041;28;8813;-65
2021/11/10 10:33:26;;;;;;;;;24.33;24.33;25.00;34.90;;;;;;5055487;28;8815;-64
2021/11/10 10:35:55;;;;;;;;;30.33;30.33;24.50;34.40;;;;;;5055637;28;9570;-60
2021/11/10 10:38:49;;;;;;;;;24.33;24.33;25.50;34.70;;;;;;5055357;28;8780;-63
2021/11/10 10:41:26;;;;;;;;;29.33;29.33;26.00;32.90;;;;;;5055552;28;8768;-62
2021/11/10 10:43:55;;;;;;;;;28.33;28.33;23.60;34.70;;;;;;5055351;28;8799;-61
2021/11/10 10:46:28;;;;;;;;;31.00;30.67;22.10;37.90;;;;;;5054722;28;8799;-60
2021/11/10 10:49:15;;;;;;;;;34.33;32.33;20.80;40.10;;;;;;5055385;28;8760;-65
2021/11/10 10:52:07;;;;;;;;;25.33;25.33;19.90;42.30;;;;;;5041216;28;8756;-64
2021/11/10 10:54:33;;;;;;;;;34.67;33.67;19.50;44.00;;;;;;5052832;28;8808;-71
2021/11/10 10:57:01;;;;;;;;;40.00;36.67;19.10;44.30;;;;;;5053605;28;8764;-64
2021/11/10 10:59:28;;;;;;;;;33.00;32.00;19.30;44.40;;;;;;5050835;28;8756;-63
2021/11/10 11:01:56;;;;;;;;;36.33;35.33;19.20;43.80;;;;;;5053780;28;8803;-57
2021/11/10 11:04:29;;;;;;;;;33.33;32.00;17.50;46.90;;;;;;5053485;28;8760;-58
2021/11/10 11:07:02;;;;;;;;;34.67;33.67;17.30;49.60;;;;;;5053545;28;9562;-62
2021/11/10 11:09:31;;;;;;;;;32.00;31.67;18.00;48.40;;;;;;5051129;28;8872;-59
2021/11/10 11:12:19;;;;;;;;;37.00;34.33;19.60;44.50;;;;;;5053794;28;8757;-58
2021/11/10 11:15:02;;;;;;;;;32.00;31.00;20.40;43.40;;;;;;5052462;28;8812;-59
2021/11/10 11:17:35;;;;;;;;;35.33;33.33;21.00;41.30;;;;;;5051190;28;8898;-63
2021/11/10 11:20:19;;;;;;;;;29.33;29.33;21.00;41.80;;;;;;5048563;28;8792;-61
2021/11/10 11:22:44;;;;;;;;;34.33;33.00;22.70;38.70;;;;;;5046965;28;8780;-61
2021/11/10 11:25:34;;;;;;;;;36.67;34.67;22.60;39.00;;;;;;5047596;28;8791;-63
2021/11/10 11:28:05;;;;;;;;;34.00;33.00;23.10;38.00;;;;;;5049695;28;8776;-65
2021/11/10 11:30:45;;;;;;;;;27.67;27.67;23.90;37.60;;;;;;5052675;28;8768;-65
2021/11/10 11:33:14;;;;;;;;;31.00;30.67;23.70;36.90;;;;;;5047791;28;8816;-63
2021/11/10 11:35:43;;;;;;;;;35.67;34.00;22.70;37.90;;;;;;5048329;28;8849;-65
2021/11/10 11:38:15;;;;;;;;;27.67;27.67;22.20;39.00;;;;;;5050617;28;9433;-64
2021/11/10 11:40:42;;;;;;;;;38.00;34.67;21.20;40.00;;;;;;5048380;28;8877;-62
2021/11/10 11:43:11;;;;;;;;;34.33;33.33;22.30;38.70;;;;;;5043121;28;8828;-63
2021/11/10 11:45:40;;;;;;;;;35.00;34.00;22.20;37.90;;;;;;5043986;28;8873;-66
2021/11/10 11:48:07;;;;;;;;;27.67;27.67;21.30;39.10;;;;;;5052969;28;8804;-65
2021/11/10 11:50:33;;;;;;;;;25.00;25.00;20.90;39.30;;;;;;5052235;28;8803;-65
2021/11/10 11:53:00;;;;;;;;;31.33;31.00;20.20;39.50;;;;;;5048355;28;8893;-64
2021/11/10 11:55:58;;;;;;;;;23.67;23.67;19.50;42.40;;;;;;5052062;28;9487;-60
2021/11/10 11:58:33;;;;;;;;;26.67;26.67;19.30;42.60;;;;;;5053837;28;8768;-59
2021/11/10 12:01:04;;;;;;;;;28.67;28.67;19.40;42.60;;;;;;5053924;28;8800;-67
2021/11/10 12:03:41;;;;;;;;;25.33;25.33;19.10;42.40;;;;;;5053944;28;8778;-68
2021/11/10 12:06:07;;;;;;;;;23.67;23.67;18.50;44.50;;;;;;5054258;28;8841;-67
2021/11/10 12:08:41;;;;;;;;;23.00;23.00;18.10;44.70;;;;;;5053788;28;8764;-67
2021/11/10 12:11:19;;;;;;;;;22.33;22.33;18.10;45.80;;;;;;5047537;28;8774;-66
2021/11/10 12:14:04;;;;;;;;;30.33;30.33;18.10;45.80;;;;;;5039727;28;8821;-66
2021/11/10 12:16:49;;;;;;;;;27.33;27.00;17.80;46.00;;;;;;5037678;28;9422;-66
2021/11/10 12:19:35;;;;;;;;;26.67;26.67;18.20;44.70;;;;;;5042867;28;8786;-66
2021/11/10 12:22:08;;;;;;;;;24.67;24.67;18.10;45.30;;;;;;5033890;28;8782;-68
2021/11/10 12:24:56;;;;;;;;;31.00;30.67;18.10;44.30;;;;;;5034278;28;8786;-68
2021/11/10 12:27:25;;;;;;;;;27.33;25.67;18.10;44.60;;;;;;5037003;28;8856;-69
2021/11/10 12:30:18;;;;;;;;;38.67;35.67;17.70;45.50;;;;;;5037848;28;8747;-70
2021/11/10 12:32:48;;;;;;;;;35.00;32.67;17.50;46.00;;;;;;5037597;28;8837;-67
2021/11/10 12:35:24;;;;;;;;;35.00;33.00;17.30;47.40;;;;;;5049204;28;8910;-62
2021/11/10 12:37:54;;;;;;;;;22.67;22.67;17.70;45.20;;;;;;5050046;28;9435;-65
2021/11/10 12:40:21;;;;;;;;;36.33;35.00;17.20;47.40;;;;;;5046823;28;8802;-63
2021/11/10 12:43:11;;;;;;;;;30.00;30.00;16.90;47.90;;;;;;5048091;28;9436;-65
2021/11/10 12:46:02;;;;;;;;;33.33;32.00;16.70;48.10;;;;;;5051033;28;8772;-59
2021/11/10 12:48:55;;;;;;;;;38.00;34.33;17.30;48.20;;;;;;5053237;28;8771;-62
2021/11/10 12:51:29;;;;;;;;;24.00;24.00;17.70;46.00;;;;;;5032680;28;9562;-59
2021/11/10 12:54:19;;;;;;;;;40.33;35.67;17.70;46.70;;;;;;5054059;28;8814;-62